sensor_id;sensor_type;location;lat;lon;timestamp;temperature;humidity
12315;DHT22;23886;46.614;14.276;2022-09-20T00:01:25;5.10;99.90
12315;DHT22;23886;46.614;14.276;2022-09-20T00:03:53;5.10;99.90
12315;DHT22;23886;46.614;14.276;2022-09-20T00:06:24;5.40;99.90
12315;DHT22;23886;46.614;14.276;2022-09-20T00:08:51;5.30;99.90
12315;DHT22;23886;46.614;14.276;2022-09-20T00:11:19;5.00;99.90
12315;DHT22;23886;46.614;14.276;2022-09-20T00:13:48;4.90;99.90
12315;DHT22;23886;46.614;14.276;2022-09-20T00:16:19;5.10;99.90
12315;DHT22;23886;46.614;14.276;2022-09-20T00:18:49;5.30;99.90
12315;DHT22;23886;46.614;14.276;2022-09-20T00:21:18;5.20;99.90
12315;DHT22;23886;46.614;14.276;2022-09-20T00:23:45;5.20;99.90
12315;DHT22;23886;46.614;14.276;2022-09-20T00:26:12;5.20;99.90
12315;DHT22;23886;46.614;14.276;2022-09-20T00:28:39;5.00;99.90
12315;DHT22;23886;46.614;14.276;2022-09-20T00:31:08;5.00;99.90
12315;DHT22;23886;46.614;14.276;2022-09-20T00:33:36;5.10;99.90
12315;DHT22;23886;46.614;14.276;2022-09-20T00:36:22;5.30;99.90
12315;DHT22;23886;46.614;14.276;2022-09-20T00:38:53;5.10;99.90
12315;DHT22;23886;46.614;14.276;2022-09-20T00:41:20;5.20;99.90
12315;DHT22;23886;46.614;14.276;2022-09-20T00:43:47;5.30;99.90
12315;DHT22;23886;46.614;14.276;2022-09-20T00:46:21;5.20;99.90
12315;DHT22;23886;46.614;14.276;2022-09-20T00:48:50;5.10;99.90
12315;DHT22;23886;46.614;14.276;2022-09-20T00:51:24;5.00;99.90
12315;DHT22;23886;46.614;14.276;2022-09-20T00:53:55;5.00;99.90
12315;DHT22;23886;46.614;14.276;2022-09-20T00:56:25;4.90;99.90
12315;DHT22;23886;46.614;14.276;2022-09-20T00:58:59;5.00;99.90
12315;DHT22;23886;46.614;14.276;2022-09-20T01:01:27;5.00;99.90
12315;DHT22;23886;46.614;14.276;2022-09-20T01:03:55;4.80;99.90
12315;DHT22;23886;46.614;14.276;2022-09-20T01:06:24;4.60;99.90
12315;DHT22;23886;46.614;14.276;2022-09-20T01:08:53;4.50;99.90
12315;DHT22;23886;46.614;14.276;2022-09-20T01:11:21;4.40;99.90
12315;DHT22;23886;46.614;14.276;2022-09-20T01:13:49;4.40;99.90
12315;DHT22;23886;46.614;14.276;2022-09-20T01:16:17;4.40;99.90
12315;DHT22;23886;46.614;14.276;2022-09-20T01:18:45;4.30;99.90
12315;DHT22;23886;46.614;14.276;2022-09-20T01:21:14;4.20;99.90
12315;DHT22;23886;46.614;14.276;2022-09-20T01:23:52;4.10;99.90
12315;DHT22;23886;46.614;14.276;2022-09-20T01:26:48;4.30;99.90
12315;DHT22;23886;46.614;14.276;2022-09-20T01:29:30;4.60;99.90
12315;DHT22;23886;46.614;14.276;2022-09-20T01:32:02;4.70;99.90
12315;DHT22;23886;46.614;14.276;2022-09-20T01:34:34;4.80;99.90
12315;DHT22;23886;46.614;14.276;2022-09-20T01:37:05;4.70;99.90
12315;DHT22;23886;46.614;14.276;2022-09-20T01:39:40;4.60;99.90
12315;DHT22;23886;46.614;14.276;2022-09-20T01:42:12;4.50;99.90
12315;DHT22;23886;46.614;14.276;2022-09-20T01:44:47;4.60;99.90
12315;DHT22;23886;46.614;14.276;2022-09-20T01:47:24;4.70;99.90
12315;DHT22;23886;46.614;14.276;2022-09-20T01:50:02;4.70;99.90
12315;DHT22;23886;46.614;14.276;2022-09-20T01:56:22;4.80;99.90
12315;DHT22;23886;46.614;14.276;2022-09-20T01:59:15;4.80;99.90
12315;DHT22;23886;46.614;14.276;2022-09-20T02:02:05;4.90;99.90
12315;DHT22;23886;46.614;14.276;2022-09-20T02:04:58;4.60;99.90
12315;DHT22;23886;46.614;14.276;2022-09-20T02:13:47;4.50;99.90
12315;DHT22;23886;46.614;14.276;2022-09-20T02:16:41;4.30;99.90
12315;DHT22;23886;46.614;14.276;2022-09-20T02:19:29;4.10;99.90
12315;DHT22;23886;46.614;14.276;2022-09-20T02:22:09;4.20;99.90
12315;DHT22;23886;46.614;14.276;2022-09-20T02:24:44;4.10;99.90
12315;DHT22;23886;46.614;14.276;2022-09-20T02:27:22;4.10;99.90
12315;DHT22;23886;46.614;14.276;2022-09-20T02:30:03;4.30;99.90
12315;DHT22;23886;46.614;14.276;2022-09-20T02:32:53;4.30;99.90
12315;DHT22;23886;46.614;14.276;2022-09-20T02:35:32;4.10;99.90
12315;DHT22;23886;46.614;14.276;2022-09-20T02:38:11;4.00;99.90
12315;DHT22;23886;46.614;14.276;2022-09-20T02:43:57;3.70;99.90
12315;DHT22;23886;46.614;14.276;2022-09-20T02:46:29;3.80;99.90
12315;DHT22;23886;46.614;14.276;2022-09-20T02:49:03;3.90;99.90
12315;DHT22;23886;46.614;14.276;2022-09-20T02:51:39;3.80;99.90
12315;DHT22;23886;46.614;14.276;2022-09-20T02:54:16;3.90;99.90
12315;DHT22;23886;46.614;14.276;2022-09-20T02:56:51;3.90;99.90
12315;DHT22;23886;46.614;14.276;2022-09-20T02:59:26;4.10;99.90
12315;DHT22;23886;46.614;14.276;2022-09-20T03:02:06;4.20;99.90
12315;DHT22;23886;46.614;14.276;2022-09-20T03:04:44;4.30;99.90
12315;DHT22;23886;46.614;14.276;2022-09-20T03:07:21;4.10;99.90
12315;DHT22;23886;46.614;14.276;2022-09-20T03:10:05;3.80;99.90
12315;DHT22;23886;46.614;14.276;2022-09-20T03:12:39;3.80;99.90
12315;DHT22;23886;46.614;14.276;2022-09-20T03:15:18;3.70;99.90
12315;DHT22;23886;46.614;14.276;2022-09-20T03:17:51;3.80;99.90
12315;DHT22;23886;46.614;14.276;2022-09-20T03:20:32;4.00;99.90
12315;DHT22;23886;46.614;14.276;2022-09-20T03:23:09;4.00;99.90
12315;DHT22;23886;46.614;14.276;2022-09-20T03:25:46;3.80;99.90
12315;DHT22;23886;46.614;14.276;2022-09-20T03:28:43;3.70;99.90
12315;DHT22;23886;46.614;14.276;2022-09-20T03:31:23;3.60;99.90
12315;DHT22;23886;46.614;14.276;2022-09-20T03:34:04;3.70;99.90
12315;DHT22;23886;46.614;14.276;2022-09-20T03:36:45;3.90;99.90
12315;DHT22;23886;46.614;14.276;2022-09-20T03:39:36;4.00;99.90
12315;DHT22;23886;46.614;14.276;2022-09-20T03:42:13;3.90;99.90
12315;DHT22;23886;46.614;14.276;2022-09-20T03:48:00;3.70;99.90
12315;DHT22;23886;46.614;14.276;2022-09-20T03:50:43;3.50;99.90
12315;DHT22;23886;46.614;14.276;2022-09-20T03:56:51;3.70;99.90
12315;DHT22;23886;46.614;14.276;2022-09-20T04:02:07;3.40;99.90
12315;DHT22;23886;46.614;14.276;2022-09-20T04:04:44;3.40;99.90
12315;DHT22;23886;46.614;14.276;2022-09-20T04:07:17;3.50;99.90
12315;DHT22;23886;46.614;14.276;2022-09-20T04:10:15;3.50;99.90
12315;DHT22;23886;46.614;14.276;2022-09-20T04:13:08;3.50;99.90
12315;DHT22;23886;46.614;14.276;2022-09-20T04:15:46;3.40;99.90
12315;DHT22;23886;46.614;14.276;2022-09-20T04:18:23;3.30;99.90
12315;DHT22;23886;46.614;14.276;2022-09-20T04:20:58;3.10;99.90
12315;DHT22;23886;46.614;14.276;2022-09-20T04:23:35;3.20;99.90
12315;DHT22;23886;46.614;14.276;2022-09-20T04:26:04;3.40;99.90
12315;DHT22;23886;46.614;14.276;2022-09-20T04:28:36;3.60;99.90
12315;DHT22;23886;46.614;14.276;2022-09-20T04:31:16;3.70;99.90
12315;DHT22;23886;46.614;14.276;2022-09-20T04:33:49;3.60;99.90
12315;DHT22;23886;46.614;14.276;2022-09-20T04:36:28;3.50;99.90
12315;DHT22;23886;46.614;14.276;2022-09-20T04:39:06;3.50;99.90
12315;DHT22;23886;46.614;14.276;2022-09-20T04:45:11;3.40;99.90
12315;DHT22;23886;46.614;14.276;2022-09-20T04:48:26;3.30;99.90
12315;DHT22;23886;46.614;14.276;2022-09-20T04:54:32;3.60;99.90
12315;DHT22;23886;46.614;14.276;2022-09-20T04:57:26;3.50;99.90
12315;DHT22;23886;46.614;14.276;2022-09-20T05:00:03;3.50;99.90
12315;DHT22;23886;46.614;14.276;2022-09-20T05:03:04;3.60;99.90
12315;DHT22;23886;46.614;14.276;2022-09-20T05:05:49;3.70;99.90
12315;DHT22;23886;46.614;14.276;2022-09-20T05:09:01;3.90;99.90
12315;DHT22;23886;46.614;14.276;2022-09-20T05:12:15;4.00;99.90
12315;DHT22;23886;46.614;14.276;2022-09-20T05:17:51;4.20;99.90
12315;DHT22;23886;46.614;14.276;2022-09-20T05:20:43;4.40;99.90
12315;DHT22;23886;46.614;14.276;2022-09-20T05:23:43;4.50;99.90
12315;DHT22;23886;46.614;14.276;2022-09-20T05:26:22;4.70;99.90
12315;DHT22;23886;46.614;14.276;2022-09-20T05:28:55;4.60;99.90
12315;DHT22;23886;46.614;14.276;2022-09-20T05:31:31;4.50;99.90
12315;DHT22;23886;46.614;14.276;2022-09-20T05:34:13;4.40;99.90
12315;DHT22;23886;46.614;14.276;2022-09-20T05:36:51;4.40;99.90
12315;DHT22;23886;46.614;14.276;2022-09-20T05:39:30;4.40;99.90
12315;DHT22;23886;46.614;14.276;2022-09-20T05:42:03;4.70;99.90
12315;DHT22;23886;46.614;14.276;2022-09-20T05:44:48;4.60;99.90
12315;DHT22;23886;46.614;14.276;2022-09-20T05:47:20;4.80;99.90
12315;DHT22;23886;46.614;14.276;2022-09-20T05:49:59;4.70;99.90
12315;DHT22;23886;46.614;14.276;2022-09-20T05:52:39;4.50;99.90
12315;DHT22;23886;46.614;14.276;2022-09-20T05:55:19;4.40;99.90
12315;DHT22;23886;46.614;14.276;2022-09-20T05:58:02;4.50;99.90
12315;DHT22;23886;46.614;14.276;2022-09-20T06:00:34;4.70;99.90
12315;DHT22;23886;46.614;14.276;2022-09-20T06:03:09;4.80;99.90
12315;DHT22;23886;46.614;14.276;2022-09-20T06:05:48;5.00;99.90
12315;DHT22;23886;46.614;14.276;2022-09-20T06:08:30;5.20;99.90
12315;DHT22;23886;46.614;14.276;2022-09-20T06:14:13;5.40;99.90
12315;DHT22;23886;46.614;14.276;2022-09-20T06:16:48;5.40;99.90
12315;DHT22;23886;46.614;14.276;2022-09-20T06:19:26;5.50;99.90
12315;DHT22;23886;46.614;14.276;2022-09-20T06:22:01;5.60;99.90
12315;DHT22;23886;46.614;14.276;2022-09-20T06:24:34;5.70;99.90
12315;DHT22;23886;46.614;14.276;2022-09-20T06:27:07;5.70;99.90
12315;DHT22;23886;46.614;14.276;2022-09-20T06:29:38;5.80;99.90
12315;DHT22;23886;46.614;14.276;2022-09-20T06:32:06;6.00;99.90
12315;DHT22;23886;46.614;14.276;2022-09-20T06:34:33;6.00;99.90
12315;DHT22;23886;46.614;14.276;2022-09-20T06:37:09;6.10;99.90
12315;DHT22;23886;46.614;14.276;2022-09-20T06:40:01;6.10;99.90
12315;DHT22;23886;46.614;14.276;2022-09-20T06:42:45;6.20;99.90
12315;DHT22;23886;46.614;14.276;2022-09-20T06:45:12;6.20;99.90
12315;DHT22;23886;46.614;14.276;2022-09-20T06:47:39;6.30;99.90
12315;DHT22;23886;46.614;14.276;2022-09-20T06:50:14;6.40;99.90
12315;DHT22;23886;46.614;14.276;2022-09-20T06:52:43;6.60;99.90
12315;DHT22;23886;46.614;14.276;2022-09-20T06:55:17;6.50;99.90
12315;DHT22;23886;46.614;14.276;2022-09-20T06:57:44;6.70;99.90
12315;DHT22;23886;46.614;14.276;2022-09-20T07:00:13;6.70;99.90
12315;DHT22;23886;46.614;14.276;2022-09-20T07:02:40;6.70;99.90
12315;DHT22;23886;46.614;14.276;2022-09-20T07:05:13;6.90;99.90
12315;DHT22;23886;46.614;14.276;2022-09-20T07:07:40;6.90;99.90
12315;DHT22;23886;46.614;14.276;2022-09-20T07:10:10;7.00;99.90
12315;DHT22;23886;46.614;14.276;2022-09-20T07:12:37;7.10;99.90
12315;DHT22;23886;46.614;14.276;2022-09-20T07:15:05;7.20;99.90
12315;DHT22;23886;46.614;14.276;2022-09-20T07:17:33;7.30;99.90
12315;DHT22;23886;46.614;14.276;2022-09-20T07:20:00;7.40;99.90
12315;DHT22;23886;46.614;14.276;2022-09-20T07:22:27;7.50;99.90
12315;DHT22;23886;46.614;14.276;2022-09-20T07:24:55;7.50;99.90
12315;DHT22;23886;46.614;14.276;2022-09-20T07:27:24;7.60;99.90
12315;DHT22;23886;46.614;14.276;2022-09-20T07:29:51;7.70;99.90
12315;DHT22;23886;46.614;14.276;2022-09-20T07:32:19;7.80;99.90
12315;DHT22;23886;46.614;14.276;2022-09-20T07:34:46;7.90;99.90
12315;DHT22;23886;46.614;14.276;2022-09-20T07:37:16;8.00;99.90
12315;DHT22;23886;46.614;14.276;2022-09-20T07:39:43;8.00;99.90
12315;DHT22;23886;46.614;14.276;2022-09-20T07:42:10;8.30;99.90
12315;DHT22;23886;46.614;14.276;2022-09-20T07:44:39;8.40;99.90
12315;DHT22;23886;46.614;14.276;2022-09-20T07:47:09;8.40;99.90
12315;DHT22;23886;46.614;14.276;2022-09-20T07:49:38;8.50;99.90
12315;DHT22;23886;46.614;14.276;2022-09-20T07:52:05;8.60;99.90
12315;DHT22;23886;46.614;14.276;2022-09-20T07:54:32;8.70;99.90
12315;DHT22;23886;46.614;14.276;2022-09-20T07:56:59;8.80;99.90
12315;DHT22;23886;46.614;14.276;2022-09-20T07:59:27;8.80;99.90
12315;DHT22;23886;46.614;14.276;2022-09-20T08:01:55;8.90;99.90
12315;DHT22;23886;46.614;14.276;2022-09-20T08:04:25;9.00;99.90
12315;DHT22;23886;46.614;14.276;2022-09-20T08:06:52;9.10;99.90
12315;DHT22;23886;46.614;14.276;2022-09-20T08:09:19;9.20;99.90
12315;DHT22;23886;46.614;14.276;2022-09-20T08:11:46;9.30;99.90
12315;DHT22;23886;46.614;14.276;2022-09-20T08:14:15;9.30;99.90
12315;DHT22;23886;46.614;14.276;2022-09-20T08:16:44;9.40;99.90
12315;DHT22;23886;46.614;14.276;2022-09-20T08:19:16;9.50;99.90
12315;DHT22;23886;46.614;14.276;2022-09-20T08:21:43;9.50;99.90
12315;DHT22;23886;46.614;14.276;2022-09-20T08:24:10;9.50;99.90
12315;DHT22;23886;46.614;14.276;2022-09-20T08:26:37;9.60;99.90
12315;DHT22;23886;46.614;14.276;2022-09-20T08:29:04;9.70;99.90
12315;DHT22;23886;46.614;14.276;2022-09-20T08:31:32;9.80;99.90
12315;DHT22;23886;46.614;14.276;2022-09-20T08:34:01;9.90;99.90
12315;DHT22;23886;46.614;14.276;2022-09-20T08:36:32;10.00;99.90
12315;DHT22;23886;46.614;14.276;2022-09-20T08:38:59;10.20;99.90
12315;DHT22;23886;46.614;14.276;2022-09-20T08:41:29;10.30;99.90
12315;DHT22;23886;46.614;14.276;2022-09-20T08:44:00;10.40;99.90
12315;DHT22;23886;46.614;14.276;2022-09-20T08:46:31;10.50;99.90
12315;DHT22;23886;46.614;14.276;2022-09-20T08:49:02;10.60;99.90
12315;DHT22;23886;46.614;14.276;2022-09-20T08:51:35;10.80;99.90
12315;DHT22;23886;46.614;14.276;2022-09-20T08:54:05;10.90;99.90
12315;DHT22;23886;46.614;14.276;2022-09-20T08:56:35;11.10;99.90
12315;DHT22;23886;46.614;14.276;2022-09-20T08:59:03;11.10;99.90
12315;DHT22;23886;46.614;14.276;2022-09-20T09:01:32;11.20;99.90
12315;DHT22;23886;46.614;14.276;2022-09-20T09:04:06;11.30;99.90
12315;DHT22;23886;46.614;14.276;2022-09-20T09:06:39;11.60;99.90
12315;DHT22;23886;46.614;14.276;2022-09-20T09:09:06;11.70;99.90
12315;DHT22;23886;46.614;14.276;2022-09-20T09:11:33;11.70;99.90
12315;DHT22;23886;46.614;14.276;2022-09-20T09:14:03;11.90;99.90
12315;DHT22;23886;46.614;14.276;2022-09-20T09:16:50;12.00;99.90
12315;DHT22;23886;46.614;14.276;2022-09-20T09:19:28;12.10;99.90
12315;DHT22;23886;46.614;14.276;2022-09-20T09:21:57;12.20;99.90
12315;DHT22;23886;46.614;14.276;2022-09-20T09:24:26;12.40;99.90
12315;DHT22;23886;46.614;14.276;2022-09-20T09:27:05;12.60;99.90
12315;DHT22;23886;46.614;14.276;2022-09-20T09:29:34;12.70;99.90
12315;DHT22;23886;46.614;14.276;2022-09-20T09:32:19;12.80;99.90
12315;DHT22;23886;46.614;14.276;2022-09-20T09:34:46;12.80;99.90
12315;DHT22;23886;46.614;14.276;2022-09-20T09:37:24;13.00;99.90
12315;DHT22;23886;46.614;14.276;2022-09-20T09:40:12;13.20;99.90
12315;DHT22;23886;46.614;14.276;2022-09-20T09:42:52;13.20;99.90
12315;DHT22;23886;46.614;14.276;2022-09-20T09:45:31;13.30;99.90
12315;DHT22;23886;46.614;14.276;2022-09-20T09:48:17;13.50;99.90
12315;DHT22;23886;46.614;14.276;2022-09-20T09:50:44;13.70;99.90
12315;DHT22;23886;46.614;14.276;2022-09-20T09:53:16;13.70;99.40
12315;DHT22;23886;46.614;14.276;2022-09-20T09:56:08;13.80;96.30
12315;DHT22;23886;46.614;14.276;2022-09-20T09:58:46;14.00;95.70
12315;DHT22;23886;46.614;14.276;2022-09-20T10:01:28;14.20;95.10
12315;DHT22;23886;46.614;14.276;2022-09-20T10:04:01;14.30;93.10
12315;DHT22;23886;46.614;14.276;2022-09-20T10:06:35;14.30;94.20
12315;DHT22;23886;46.614;14.276;2022-09-20T10:09:20;14.40;92.30
12315;DHT22;23886;46.614;14.276;2022-09-20T10:12:01;14.60;93.10
12315;DHT22;23886;46.614;14.276;2022-09-20T10:14:48;14.70;93.60
12315;DHT22;23886;46.614;14.276;2022-09-20T10:17:38;14.80;93.10
12315;DHT22;23886;46.614;14.276;2022-09-20T10:20:23;14.80;95.10
12315;DHT22;23886;46.614;14.276;2022-09-20T10:22:58;15.10;93.40
12315;DHT22;23886;46.614;14.276;2022-09-20T10:25:35;14.90;92.10
12315;DHT22;23886;46.614;14.276;2022-09-20T10:28:16;15.00;92.90
12315;DHT22;23886;46.614;14.276;2022-09-20T10:30:50;15.10;92.70
12315;DHT22;23886;46.614;14.276;2022-09-20T10:33:30;15.00;92.60
12315;DHT22;23886;46.614;14.276;2022-09-20T10:36:14;15.30;93.20
12315;DHT22;23886;46.614;14.276;2022-09-20T10:38:53;15.20;93.20
12315;DHT22;23886;46.614;14.276;2022-09-20T10:41:40;15.00;93.10
12315;DHT22;23886;46.614;14.276;2022-09-20T10:44:39;14.90;91.20
12315;DHT22;23886;46.614;14.276;2022-09-20T10:47:14;15.10;92.10
12315;DHT22;23886;46.614;14.276;2022-09-20T10:49:51;15.50;92.90
12315;DHT22;23886;46.614;14.276;2022-09-20T10:52:50;15.80;92.60
12315;DHT22;23886;46.614;14.276;2022-09-20T10:55:31;15.90;88.80
12315;DHT22;23886;46.614;14.276;2022-09-20T10:58:34;16.00;90.30
12315;DHT22;23886;46.614;14.276;2022-09-20T11:01:09;16.00;90.60
12315;DHT22;23886;46.614;14.276;2022-09-20T11:03:57;16.00;90.20
12315;DHT22;23886;46.614;14.276;2022-09-20T11:06:38;16.00;90.10
12315;DHT22;23886;46.614;14.276;2022-09-20T11:09:11;16.10;91.90
12315;DHT22;23886;46.614;14.276;2022-09-20T11:11:42;16.10;88.50
12315;DHT22;23886;46.614;14.276;2022-09-20T11:14:14;16.30;90.30
12315;DHT22;23886;46.614;14.276;2022-09-20T11:16:49;16.50;90.20
12315;DHT22;23886;46.614;14.276;2022-09-20T11:19:21;16.50;89.90
12315;DHT22;23886;46.614;14.276;2022-09-20T11:21:54;16.50;90.00
12315;DHT22;23886;46.614;14.276;2022-09-20T11:24:28;16.70;88.90
12315;DHT22;23886;46.614;14.276;2022-09-20T11:26:59;16.90;90.90
12315;DHT22;23886;46.614;14.276;2022-09-20T11:29:33;17.00;89.00
12315;DHT22;23886;46.614;14.276;2022-09-20T11:32:09;17.00;90.10
12315;DHT22;23886;46.614;14.276;2022-09-20T11:34:44;17.20;86.80
12315;DHT22;23886;46.614;14.276;2022-09-20T11:37:14;17.40;88.50
12315;DHT22;23886;46.614;14.276;2022-09-20T11:39:46;17.40;85.10
12315;DHT22;23886;46.614;14.276;2022-09-20T11:42:17;17.20;86.90
12315;DHT22;23886;46.614;14.276;2022-09-20T11:44:46;17.40;83.70
12315;DHT22;23886;46.614;14.276;2022-09-20T11:47:18;17.50;79.50
12315;DHT22;23886;46.614;14.276;2022-09-20T11:50:02;17.70;79.60
12315;DHT22;23886;46.614;14.276;2022-09-20T11:52:55;17.80;75.90
12315;DHT22;23886;46.614;14.276;2022-09-20T11:55:39;17.90;73.00
12315;DHT22;23886;46.614;14.276;2022-09-20T11:58:11;18.10;74.90
12315;DHT22;23886;46.614;14.276;2022-09-20T12:00:44;18.40;73.50
12315;DHT22;23886;46.614;14.276;2022-09-20T12:03:27;19.10;74.00
12315;DHT22;23886;46.614;14.276;2022-09-20T12:05:56;19.00;71.90
12315;DHT22;23886;46.614;14.276;2022-09-20T12:08:26;19.10;71.10
12315;DHT22;23886;46.614;14.276;2022-09-20T12:10:57;18.70;70.30
12315;DHT22;23886;46.614;14.276;2022-09-20T12:13:26;18.80;71.60
12315;DHT22;23886;46.614;14.276;2022-09-20T12:16:01;19.30;73.30
12315;DHT22;23886;46.614;14.276;2022-09-20T12:18:36;19.50;75.20
12315;DHT22;23886;46.614;14.276;2022-09-20T12:21:09;19.60;67.30
12315;DHT22;23886;46.614;14.276;2022-09-20T12:26:43;19.20;70.80
12315;DHT22;23886;46.614;14.276;2022-09-20T12:32:39;19.60;72.10
12315;DHT22;23886;46.614;14.276;2022-09-20T12:38:33;20.00;66.10
12315;DHT22;23886;46.614;14.276;2022-09-20T12:41:05;20.40;73.10
12315;DHT22;23886;46.614;14.276;2022-09-20T12:43:36;20.50;69.80
12315;DHT22;23886;46.614;14.276;2022-09-20T12:46:04;20.80;63.60
12315;DHT22;23886;46.614;14.276;2022-09-20T12:48:36;19.90;63.10
12315;DHT22;23886;46.614;14.276;2022-09-20T12:51:15;19.50;62.90
12315;DHT22;23886;46.614;14.276;2022-09-20T12:54:03;19.60;64.40
12315;DHT22;23886;46.614;14.276;2022-09-20T12:56:34;19.10;63.20
12315;DHT22;23886;46.614;14.276;2022-09-20T12:59:02;18.90;69.80
12315;DHT22;23886;46.614;14.276;2022-09-20T13:01:37;18.70;66.30
12315;DHT22;23886;46.614;14.276;2022-09-20T13:07:52;19.70;62.70
12315;DHT22;23886;46.614;14.276;2022-09-20T13:10:31;19.80;64.40
12315;DHT22;23886;46.614;14.276;2022-09-20T13:13:03;20.10;61.80
12315;DHT22;23886;46.614;14.276;2022-09-20T13:15:33;20.00;61.70
12315;DHT22;23886;46.614;14.276;2022-09-20T13:18:01;19.60;66.10
12315;DHT22;23886;46.614;14.276;2022-09-20T13:20:30;19.40;62.30
12315;DHT22;23886;46.614;14.276;2022-09-20T13:23:01;19.40;67.30
12315;DHT22;23886;46.614;14.276;2022-09-20T13:25:29;19.20;67.80
12315;DHT22;23886;46.614;14.276;2022-09-20T13:28:05;19.20;69.20
12315;DHT22;23886;46.614;14.276;2022-09-20T13:30:33;19.00;72.70
12315;DHT22;23886;46.614;14.276;2022-09-20T13:33:15;18.80;73.60
12315;DHT22;23886;46.614;14.276;2022-09-20T13:35:44;18.50;76.10
12315;DHT22;23886;46.614;14.276;2022-09-20T13:38:16;18.00;79.60
12315;DHT22;23886;46.614;14.276;2022-09-20T13:40:47;17.70;82.00
12315;DHT22;23886;46.614;14.276;2022-09-20T13:43:23;17.50;82.00
12315;DHT22;23886;46.614;14.276;2022-09-20T13:45:54;17.30;83.10
12315;DHT22;23886;46.614;14.276;2022-09-20T13:48:24;17.30;83.40
12315;DHT22;23886;46.614;14.276;2022-09-20T13:50:52;17.30;85.00
12315;DHT22;23886;46.614;14.276;2022-09-20T13:53:22;17.30;83.70
12315;DHT22;23886;46.614;14.276;2022-09-20T13:55:50;17.60;83.70
12315;DHT22;23886;46.614;14.276;2022-09-20T13:58:21;17.60;83.40
12315;DHT22;23886;46.614;14.276;2022-09-20T14:00:51;18.00;83.30
12315;DHT22;23886;46.614;14.276;2022-09-20T14:03:20;18.10;82.90
12315;DHT22;23886;46.614;14.276;2022-09-20T14:05:49;18.10;82.10
12315;DHT22;23886;46.614;14.276;2022-09-20T14:08:22;17.70;84.10
12315;DHT22;23886;46.614;14.276;2022-09-20T14:11:02;17.90;82.40
12315;DHT22;23886;46.614;14.276;2022-09-20T14:13:34;18.20;83.40
12315;DHT22;23886;46.614;14.276;2022-09-20T14:16:03;19.10;82.10
12315;DHT22;23886;46.614;14.276;2022-09-20T14:18:30;19.40;81.80
12315;DHT22;23886;46.614;14.276;2022-09-20T14:20:58;19.60;78.80
12315;DHT22;23886;46.614;14.276;2022-09-20T14:23:27;19.30;78.20
12315;DHT22;23886;46.614;14.276;2022-09-20T14:26:20;19.90;78.90
12315;DHT22;23886;46.614;14.276;2022-09-20T14:28:47;21.00;77.00
12315;DHT22;23886;46.614;14.276;2022-09-20T14:31:18;21.80;74.60
12315;DHT22;23886;46.614;14.276;2022-09-20T14:33:49;21.50;73.60
12315;DHT22;23886;46.614;14.276;2022-09-20T14:36:20;21.20;74.70
12315;DHT22;23886;46.614;14.276;2022-09-20T14:38:50;20.50;75.20
12315;DHT22;23886;46.614;14.276;2022-09-20T14:41:26;19.70;77.30
12315;DHT22;23886;46.614;14.276;2022-09-20T14:43:56;19.30;78.60
12315;DHT22;23886;46.614;14.276;2022-09-20T14:46:29;18.70;80.10
12315;DHT22;23886;46.614;14.276;2022-09-20T14:49:30;18.30;80.90
12315;DHT22;23886;46.614;14.276;2022-09-20T14:52:31;17.90;82.50
12315;DHT22;23886;46.614;14.276;2022-09-20T14:55:15;17.50;82.30
12315;DHT22;23886;46.614;14.276;2022-09-20T14:57:44;17.10;84.40
12315;DHT22;23886;46.614;14.276;2022-09-20T15:00:13;16.90;84.50
12315;DHT22;23886;46.614;14.276;2022-09-20T15:02:41;16.70;84.30
12315;DHT22;23886;46.614;14.276;2022-09-20T15:05:17;16.70;85.40
12315;DHT22;23886;46.614;14.276;2022-09-20T15:07:45;16.80;85.60
12315;DHT22;23886;46.614;14.276;2022-09-20T15:10:14;16.80;85.10
12315;DHT22;23886;46.614;14.276;2022-09-20T15:12:41;17.00;84.40
12315;DHT22;23886;46.614;14.276;2022-09-20T15:15:11;17.00;84.70
12315;DHT22;23886;46.614;14.276;2022-09-20T15:17:41;17.30;84.50
12315;DHT22;23886;46.614;14.276;2022-09-20T15:20:13;17.30;83.90
12315;DHT22;23886;46.614;14.276;2022-09-20T15:22:41;17.30;84.10
12315;DHT22;23886;46.614;14.276;2022-09-20T15:25:13;17.20;84.90
12315;DHT22;23886;46.614;14.276;2022-09-20T15:27:42;16.90;86.30
12315;DHT22;23886;46.614;14.276;2022-09-20T15:30:13;17.10;88.40
12315;DHT22;23886;46.614;14.276;2022-09-20T15:32:41;17.00;89.00
12315;DHT22;23886;46.614;14.276;2022-09-20T15:35:08;17.20;85.90
12315;DHT22;23886;46.614;14.276;2022-09-20T15:37:35;17.00;86.10
12315;DHT22;23886;46.614;14.276;2022-09-20T15:40:03;16.90;85.80
12315;DHT22;23886;46.614;14.276;2022-09-20T15:42:31;16.70;85.50
12315;DHT22;23886;46.614;14.276;2022-09-20T15:45:05;16.60;85.00
12315;DHT22;23886;46.614;14.276;2022-09-20T15:47:34;16.70;85.30
12315;DHT22;23886;46.614;14.276;2022-09-20T15:50:03;16.70;84.80
12315;DHT22;23886;46.614;14.276;2022-09-20T15:52:33;16.60;85.40
12315;DHT22;23886;46.614;14.276;2022-09-20T15:55:00;16.50;85.90
12315;DHT22;23886;46.614;14.276;2022-09-20T15:57:28;16.20;87.50
12315;DHT22;23886;46.614;14.276;2022-09-20T15:59:57;16.00;86.20
12315;DHT22;23886;46.614;14.276;2022-09-20T16:02:25;15.90;87.20
12315;DHT22;23886;46.614;14.276;2022-09-20T16:04:52;15.70;86.10
12315;DHT22;23886;46.614;14.276;2022-09-20T16:07:21;15.60;88.20
12315;DHT22;23886;46.614;14.276;2022-09-20T16:09:51;15.40;87.80
12315;DHT22;23886;46.614;14.276;2022-09-20T16:12:19;15.30;87.70
12315;DHT22;23886;46.614;14.276;2022-09-20T16:14:46;15.10;90.00
12315;DHT22;23886;46.614;14.276;2022-09-20T16:17:15;15.10;89.70
12315;DHT22;23886;46.614;14.276;2022-09-20T16:19:42;15.10;89.20
12315;DHT22;23886;46.614;14.276;2022-09-20T16:22:10;14.90;90.20
12315;DHT22;23886;46.614;14.276;2022-09-20T16:24:39;14.90;89.50
12315;DHT22;23886;46.614;14.276;2022-09-20T16:27:06;14.80;90.00
12315;DHT22;23886;46.614;14.276;2022-09-20T16:29:34;14.50;91.00
12315;DHT22;23886;46.614;14.276;2022-09-20T16:32:01;14.60;89.80
12315;DHT22;23886;46.614;14.276;2022-09-20T16:34:33;14.50;91.20
12315;DHT22;23886;46.614;14.276;2022-09-20T16:37:02;14.40;90.80
12315;DHT22;23886;46.614;14.276;2022-09-20T16:39:30;14.40;89.90
12315;DHT22;23886;46.614;14.276;2022-09-20T16:41:58;14.30;90.80
12315;DHT22;23886;46.614;14.276;2022-09-20T16:44:29;14.30;93.10
12315;DHT22;23886;46.614;14.276;2022-09-20T16:46:56;14.10;91.50
12315;DHT22;23886;46.614;14.276;2022-09-20T16:49:23;14.00;94.00
12315;DHT22;23886;46.614;14.276;2022-09-20T16:51:55;14.00;91.30
12315;DHT22;23886;46.614;14.276;2022-09-20T16:54:22;14.10;91.00
12315;DHT22;23886;46.614;14.276;2022-09-20T16:56:50;14.00;90.50